createdAt,value
2022-11-28T00:01:47.942Z,101532.75
2022-11-28T00:04:17.598Z,101535.19
2022-11-28T00:06:49.329Z,101534.47
2022-11-28T00:09:18.730Z,101526.41
2022-11-28T00:11:48.451Z,101524.72
2022-11-28T00:14:17.738Z,101518.91
2022-11-28T00:16:46.120Z,101520.13
2022-11-28T00:19:14.906Z,101517.59
2022-11-28T00:21:44.189Z,101504.88
2022-11-28T00:24:12.124Z,101510.34
2022-11-28T00:26:42.195Z,101510.50
2022-11-28T00:29:11.498Z,101507.41
2022-11-28T00:31:43.694Z,101505.53
2022-11-28T00:34:13.326Z,101499.28
2022-11-28T00:36:41.456Z,101493.63
2022-11-28T00:39:10.888Z,101483.38
2022-11-28T00:41:46.280Z,101491.28
2022-11-28T00:44:14.582Z,101487.75
2022-11-28T00:46:42.825Z,101484.56
2022-11-28T00:49:10.795Z,101482.22
2022-11-28T00:51:39.155Z,101493.41
2022-11-28T00:54:10.423Z,101498.25
2022-11-28T00:56:40.917Z,101502.19
2022-11-28T00:59:09.164Z,101499.78
2022-11-28T01:01:39.603Z,101489.94
2022-11-28T01:04:10.056Z,101499.34
2022-11-28T01:06:39.952Z,101485.88
2022-11-28T01:09:10.489Z,101480.44
2022-11-28T01:11:40.708Z,101480.22
2022-11-28T01:14:09.228Z,101471.78
2022-11-28T01:16:39.625Z,101470.19
2022-11-28T01:19:08.116Z,101463.88
2022-11-28T01:21:37.467Z,101465.91
2022-11-28T01:24:06.200Z,101463.00
2022-11-28T01:26:34.206Z,101457.81
2022-11-28T01:29:03.496Z,101449.91
2022-11-28T01:31:32.000Z,101457.44
2022-11-28T01:34:00.362Z,101443.69
2022-11-28T01:36:28.711Z,101449.38
2022-11-28T01:38:56.636Z,101442.00
2022-11-28T01:41:26.938Z,101442.06
2022-11-28T01:44:35.351Z,101436.13
2022-11-28T01:47:04.754Z,101431.91
2022-11-28T01:49:38.318Z,101430.59
2022-11-28T01:52:11.476Z,101421.81
2022-11-28T01:54:42.389Z,101425.06
2022-11-28T01:57:14.508Z,101424.94
2022-11-28T01:59:46.558Z,101429.31
2022-11-28T02:02:24.268Z,101419.09
2022-11-28T02:04:53.287Z,101418.47
2022-11-28T02:07:21.844Z,101413.34
2022-11-28T02:09:49.769Z,101415.03
2022-11-28T02:12:32.400Z,101410.88
2022-11-28T02:15:15.408Z,101408.16
2022-11-28T02:18:01.245Z,101400.41
2022-11-28T02:21:07.165Z,101396.63
2022-11-28T02:23:58.550Z,101397.94
2022-11-28T02:27:11.110Z,101399.16
2022-11-28T02:29:58.358Z,101384.34
2022-11-28T02:33:10.758Z,101382.28
2022-11-28T02:35:54.041Z,101383.47
2022-11-28T02:38:29.883Z,101380.03
2022-11-28T02:41:01.957Z,101380.88
2022-11-28T02:43:39.942Z,101379.91
2022-11-28T02:46:14.795Z,101373.56
2022-11-28T02:48:49.213Z,101372.56
2022-11-28T02:51:25.618Z,101374.31
2022-11-28T02:53:56.219Z,101377.66
2022-11-28T02:56:25.718Z,101374.38
2022-11-28T02:58:54.128Z,101368.47
2022-11-28T03:01:25.342Z,101365.25
2022-11-28T03:04:11.967Z,101359.09
2022-11-28T03:06:51.337Z,101356.47
2022-11-28T03:09:48.214Z,101360.19
2022-11-28T03:12:22.368Z,101357.63
2022-11-28T03:14:54.111Z,101347.06
2022-11-28T03:17:42.352Z,101348.56
2022-11-28T03:20:21.993Z,101340.38
2022-11-28T03:23:07.669Z,101339.78
2022-11-28T03:25:42.248Z,101338.88
2022-11-28T03:28:15.373Z,101331.59
2022-11-28T03:30:48.237Z,101338.81
2022-11-28T03:33:18.760Z,101347.44
2022-11-28T03:35:52.502Z,101344.59
2022-11-28T03:38:24.366Z,101340.38
2022-11-28T03:40:56.709Z,101347.59
2022-11-28T03:43:29.798Z,101335.44
2022-11-28T03:46:01.429Z,101338.88
2022-11-28T03:48:33.757Z,101333.03
2022-11-28T03:51:06.537Z,101331.09
2022-11-28T03:53:43.544Z,101321.53
2022-11-28T03:56:15.830Z,101326.78
2022-11-28T03:58:50.683Z,101327.09
2022-11-28T04:01:31.076Z,101320.91
2022-11-28T04:04:11.100Z,101333.38
2022-11-28T04:06:52.847Z,101328.63
2022-11-28T04:09:33.761Z,101322.53
2022-11-28T04:12:08.757Z,101323.44
2022-11-28T04:14:42.904Z,101313.41
2022-11-28T04:17:17.522Z,101322.28
2022-11-28T04:19:52.506Z,101310.28
2022-11-28T04:22:25.393Z,101305.66
2022-11-28T04:24:59.487Z,101303.16
2022-11-28T04:27:31.422Z,101306.72
2022-11-28T04:30:02.551Z,101311.41
2022-11-28T04:32:34.117Z,101308.88
2022-11-28T04:35:06.372Z,101308.22
2022-11-28T04:37:38.346Z,101302.53
2022-11-28T04:40:14.317Z,101305.31
2022-11-28T04:42:51.302Z,101301.31
2022-11-28T04:45:27.996Z,101297.13
2022-11-28T04:47:56.500Z,101290.66
2022-11-28T04:50:29.553Z,101296.91
2022-11-28T04:53:03.766Z,101298.72
2022-11-28T04:55:37.826Z,101301.09
2022-11-28T04:58:10.845Z,101293.41
2022-11-28T05:00:39.798Z,101294.69
2022-11-28T05:03:09.002Z,101298.72
2022-11-28T05:05:44.401Z,101288.38
2022-11-28T05:08:12.538Z,101292.38
2022-11-28T05:10:42.320Z,101298.09
2022-11-28T05:13:10.804Z,101296.38
2022-11-28T05:15:38.984Z,101304.78
2022-11-28T05:18:07.247Z,101293.50
2022-11-28T05:20:38.667Z,101297.97
2022-11-28T05:23:06.591Z,101290.88
2022-11-28T05:25:34.539Z,101290.75
2022-11-28T05:28:04.047Z,101293.66
2022-11-28T05:30:32.056Z,101296.22
2022-11-28T05:33:00.598Z,101291.63
2022-11-28T05:35:28.564Z,101290.66
2022-11-28T05:37:56.485Z,101284.72
2022-11-28T05:40:24.797Z,101280.56
2022-11-28T05:42:52.733Z,101282.59
2022-11-28T05:45:22.169Z,101272.34
2022-11-28T05:47:50.336Z,101274.56
2022-11-28T05:50:20.731Z,101269.44
2022-11-28T05:52:48.772Z,101273.69
2022-11-28T05:55:17.046Z,101272.97
2022-11-28T05:57:45.046Z,101272.00
2022-11-28T06:00:14.327Z,101263.38
2022-11-28T06:02:43.692Z,101261.97
2022-11-28T06:05:40.393Z,101261.38
2022-11-28T06:07:59.777Z,101255.47
2022-11-28T06:10:27.706Z,101252.44
2022-11-28T06:12:55.608Z,101248.56
2022-11-28T06:15:23.691Z,101243.03
2022-11-28T06:17:52.937Z,101245.03
2022-11-28T06:20:20.912Z,101242.69
2022-11-28T06:22:49.090Z,101240.78
2022-11-28T06:25:17.005Z,101237.91
2022-11-28T06:27:46.736Z,101232.38
2022-11-28T06:30:17.440Z,101231.31
2022-11-28T06:32:45.799Z,101229.06
2022-11-28T06:35:15.276Z,101234.06
2022-11-28T06:37:45.111Z,101236.19
2022-11-28T06:40:14.914Z,101229.88
2022-11-28T06:42:42.891Z,101225.41
2022-11-28T06:45:11.391Z,101231.09
2022-11-28T06:47:39.295Z,101228.69
2022-11-28T06:50:09.728Z,101226.19
2022-11-28T06:52:39.099Z,101229.41
2022-11-28T06:55:07.429Z,101232.84
2022-11-28T06:57:35.639Z,101221.25
2022-11-28T07:00:05.161Z,101231.56
2022-11-28T07:02:34.002Z,101236.50
2022-11-28T07:05:02.344Z,101230.03
2022-11-28T07:07:30.469Z,101232.13
2022-11-28T07:10:00.210Z,101233.91
2022-11-28T07:12:28.696Z,101226.13
2022-11-28T07:14:56.914Z,101224.56
2022-11-28T07:17:25.140Z,101226.28
2022-11-28T07:19:55.070Z,101230.34
2022-11-28T07:22:24.049Z,101230.19
2022-11-28T07:24:52.358Z,101226.13
2022-11-28T07:27:21.745Z,101227.72
2022-11-28T07:29:55.899Z,101227.22
2022-11-28T07:32:24.228Z,101238.53
2022-11-28T07:34:54.036Z,101229.16
2022-11-28T07:37:22.229Z,101226.94
2022-11-28T07:39:53.422Z,101238.44
2022-11-28T07:42:24.630Z,101232.50
2022-11-28T07:45:04.747Z,101225.84
2022-11-28T07:47:32.795Z,101221.66
2022-11-28T07:50:00.795Z,101222.69
2022-11-28T07:52:28.772Z,101228.47
2022-11-28T07:54:56.719Z,101227.59
2022-11-28T07:57:26.329Z,101230.31
2022-11-28T07:59:54.334Z,101223.81
2022-11-28T08:02:22.351Z,101208.88
2022-11-28T08:04:54.945Z,101215.56
2022-11-28T08:07:23.553Z,101220.72
2022-11-28T08:09:52.460Z,101215.84
2022-11-28T08:12:20.522Z,101213.53
2022-11-28T08:14:50.599Z,101218.03
2022-11-28T08:17:18.861Z,101212.88
2022-11-28T08:19:47.101Z,101216.63
2022-11-28T08:22:15.201Z,101212.69
2022-11-28T08:24:43.509Z,101205.78
2022-11-28T08:27:12.328Z,101205.06
2022-11-28T08:29:40.931Z,101199.50
2022-11-28T08:32:20.439Z,101192.31
2022-11-28T08:34:48.659Z,101193.16
2022-11-28T08:37:17.439Z,101202.53
2022-11-28T08:39:45.702Z,101186.47
2022-11-28T08:42:13.938Z,101189.63
2022-11-28T08:44:42.445Z,101191.16
2022-11-28T08:47:12.304Z,101196.44
2022-11-28T08:49:40.583Z,101190.63
2022-11-28T08:52:09.019Z,101193.41
2022-11-28T08:54:37.371Z,101191.59
2022-11-28T08:57:05.614Z,101195.28
2022-11-28T08:59:33.820Z,101193.41
2022-11-28T09:02:01.960Z,101182.47
2022-11-28T09:04:32.005Z,101196.63
2022-11-28T09:07:00.108Z,101186.84
2022-11-28T09:09:32.738Z,101201.50
2022-11-28T09:12:01.162Z,101199.25
2022-11-28T09:14:29.314Z,101197.53
2022-11-28T09:16:59.965Z,101194.91
2022-11-28T09:19:31.837Z,101198.63
2022-11-28T09:22:02.124Z,101201.75
2022-11-28T09:24:30.138Z,101199.53
2022-11-28T09:26:58.085Z,101198.00
2022-11-28T09:29:26.285Z,101199.44
2022-11-28T09:31:54.324Z,101198.53
2022-11-28T09:34:22.381Z,101202.72
2022-11-28T09:36:51.680Z,101199.38
2022-11-28T09:39:19.956Z,101197.50
2022-11-28T09:42:13.430Z,101198.03
2022-11-28T09:44:47.659Z,101194.25
2022-11-28T09:47:21.080Z,101190.53
2022-11-28T09:49:53.044Z,101188.94
2022-11-28T09:52:34.889Z,101183.19
2022-11-28T09:55:16.907Z,101178.44
2022-11-28T09:57:48.334Z,101169.31
2022-11-28T10:00:18.708Z,101168.59
2022-11-28T10:03:02.627Z,101167.94
2022-11-28T10:05:37.080Z,101169.78
2022-11-28T10:08:20.767Z,101172.59
2022-11-28T10:10:58.791Z,101163.13
2022-11-28T10:14:05.951Z,101164.84
2022-11-28T10:16:36.377Z,101167.69
2022-11-28T10:19:25.561Z,101170.69
2022-11-28T10:22:02.687Z,101158.38
2022-11-28T10:24:38.400Z,101165.69
2022-11-28T10:27:12.112Z,101159.88
2022-11-28T10:29:49.007Z,101152.75
2022-11-28T10:32:21.599Z,101161.84
2022-11-28T10:34:59.528Z,101163.38
2022-11-28T10:37:29.870Z,101158.66
2022-11-28T10:40:13.770Z,101149.84
2022-11-28T10:42:47.332Z,101153.44
2022-11-28T10:45:24.312Z,101148.53
2022-11-28T10:48:37.065Z,101142.19
2022-11-28T10:51:02.125Z,101139.34
2022-11-28T10:53:42.859Z,101144.22
2022-11-28T10:56:25.227Z,101137.09
2022-11-28T10:58:59.527Z,101138.63
2022-11-28T11:01:30.974Z,101140.78
2022-11-28T11:03:59.605Z,101137.94
2022-11-28T11:06:40.893Z,101129.84
2022-11-28T11:09:34.377Z,101132.28
2022-11-28T11:12:06.352Z,101130.47
2022-11-28T11:14:36.833Z,101135.19
2022-11-28T11:17:08.099Z,101135.34
2022-11-28T11:19:38.682Z,101130.56
2022-11-28T11:22:21.133Z,101124.22
2022-11-28T11:25:06.790Z,101128.91
2022-11-28T11:27:37.673Z,101123.53
2022-11-28T11:30:18.814Z,101117.09
2022-11-28T11:32:51.589Z,101111.34
2022-11-28T11:35:22.797Z,101114.97
2022-11-28T11:37:50.951Z,101114.78
2022-11-28T11:40:23.735Z,101118.03
2022-11-28T11:42:57.229Z,101124.38
2022-11-28T11:45:29.256Z,101122.84
2022-11-28T11:47:57.550Z,101126.47
2022-11-28T11:50:28.035Z,101121.09
2022-11-28T11:53:07.746Z,101123.47
2022-11-28T11:55:45.675Z,101112.47
2022-11-28T11:58:21.893Z,101111.56
2022-11-28T12:00:53.259Z,101114.22
2022-11-28T12:03:30.687Z,101105.16
2022-11-28T12:06:17.850Z,101109.63
2022-11-28T12:08:51.651Z,101106.69
2022-11-28T12:11:26.136Z,101101.47
2022-11-28T12:13:58.370Z,101099.72
2022-11-28T12:16:45.691Z,101088.88
2022-11-28T12:19:24.755Z,101092.84
2022-11-28T12:22:06.207Z,101088.31
2022-11-28T12:24:42.670Z,101086.47
2022-11-28T12:27:26.824Z,101086.00
2022-11-28T12:30:06.184Z,101089.09
2022-11-28T12:32:47.000Z,101082.72
2022-11-28T12:35:28.086Z,101075.66
2022-11-28T12:38:11.451Z,101064.06
2022-11-28T12:40:51.204Z,101074.19
2022-11-28T12:43:34.447Z,101079.69
2022-11-28T12:46:12.320Z,101071.41
2022-11-28T12:48:57.468Z,101067.38
2022-11-28T12:51:35.419Z,101062.19
2022-11-28T12:54:16.277Z,101065.97
2022-11-28T12:56:58.986Z,101071.13
2022-11-28T12:59:41.345Z,101070.84
2022-11-28T13:02:26.344Z,101074.16
2022-11-28T13:05:07.165Z,101074.94
2022-11-28T13:07:44.480Z,101075.75
2022-11-28T13:10:24.510Z,101076.84
2022-11-28T13:12:59.182Z,101075.22
2022-11-28T13:15:47.644Z,101073.84
2022-11-28T13:18:30.488Z,101074.78
2022-11-28T13:21:08.014Z,101067.75
2022-11-28T13:23:45.242Z,101062.75
2022-11-28T13:26:24.051Z,101062.44
2022-11-28T13:29:00.245Z,101058.00
2022-11-28T13:31:35.829Z,101065.72
2022-11-28T13:34:05.991Z,101066.13
2022-11-28T13:39:43.282Z,101054.84
2022-11-28T13:45:32.746Z,101059.19
2022-11-28T13:48:01.325Z,101062.28
2022-11-28T13:50:40.574Z,101061.06
2022-11-28T13:53:25.790Z,101061.63
2022-11-28T13:56:16.531Z,101050.88
2022-11-28T13:58:52.062Z,101058.69
2022-11-28T14:01:22.416Z,101055.38
2022-11-28T14:03:53.899Z,101062.78
2022-11-28T14:06:26.561Z,101059.53
2022-11-28T14:09:08.176Z,101055.88
2022-11-28T14:12:12.379Z,101056.38
2022-11-28T14:15:09.185Z,101063.06
2022-11-28T14:18:00.740Z,101055.75
2022-11-28T14:20:39.280Z,101056.53
2022-11-28T14:23:26.281Z,101049.03
2022-11-28T14:25:55.615Z,101055.06
2022-11-28T14:28:28.669Z,101054.53
2022-11-28T14:31:05.149Z,101060.22
2022-11-28T14:33:39.009Z,101059.75
2022-11-28T14:36:24.785Z,101060.22
2022-11-28T14:39:36.096Z,101060.00
2022-11-28T14:45:44.699Z,101058.94
2022-11-28T14:48:20.811Z,101049.91
2022-11-28T14:50:59.031Z,101062.16
2022-11-28T14:53:53.070Z,101054.72
2022-11-28T14:56:28.980Z,101064.13
2022-11-28T14:58:59.837Z,101053.44
2022-11-28T15:01:45.623Z,101049.59
2022-11-28T15:04:54.847Z,101063.53
2022-11-28T15:07:34.204Z,101056.91
2022-11-28T15:10:10.210Z,101057.94
2022-11-28T15:12:51.900Z,101057.81
2022-11-28T15:15:22.816Z,101061.66
2022-11-28T15:17:54.478Z,101068.38
2022-11-28T15:20:29.302Z,101073.56
2022-11-28T15:22:58.086Z,101069.13
2022-11-28T15:25:29.494Z,101065.50
2022-11-28T15:28:14.404Z,101069.59
2022-11-28T15:30:46.644Z,101067.50
2022-11-28T15:33:16.179Z,101069.66
2022-11-28T15:35:56.156Z,101075.66
2022-11-28T15:38:24.885Z,101073.25
2022-11-28T15:40:54.778Z,101075.31
2022-11-28T15:43:26.427Z,101076.91
2022-11-28T15:45:58.700Z,101070.78
2022-11-28T15:48:28.944Z,101071.88
2022-11-28T15:50:57.413Z,101070.44
2022-11-28T15:53:29.795Z,101072.59
2022-11-28T15:56:11.980Z,101072.84
2022-11-28T15:58:42.166Z,101068.81
2022-11-28T16:01:19.123Z,101076.84
2022-11-28T16:03:53.531Z,101078.50
2022-11-28T16:06:24.440Z,101079.75
2022-11-28T16:08:55.990Z,101086.00
2022-11-28T16:11:26.006Z,101076.06
2022-11-28T16:13:58.514Z,101077.75
2022-11-28T16:16:29.873Z,101085.16
2022-11-28T16:19:00.522Z,101087.66
2022-11-28T16:21:33.340Z,101089.25
2022-11-28T16:24:02.202Z,101082.56
2022-11-28T16:26:33.850Z,101087.53
2022-11-28T16:29:13.429Z,101092.38
2022-11-28T16:31:43.371Z,101088.53
2022-11-28T16:34:14.687Z,101092.06
2022-11-28T16:36:45.781Z,101088.56
2022-11-28T16:39:18.311Z,101094.31
2022-11-28T16:41:51.978Z,101085.66
2022-11-28T16:44:25.890Z,101086.56
2022-11-28T16:46:56.255Z,101085.88
2022-11-28T16:49:34.778Z,101078.84
2022-11-28T16:52:57.597Z,101086.56
2022-11-28T16:55:47.853Z,101083.72
2022-11-28T16:58:25.262Z,101085.38
2022-11-28T17:01:01.802Z,101087.66
2022-11-28T17:03:51.408Z,101083.34
2022-11-28T17:06:22.673Z,101093.00
2022-11-28T17:08:51.197Z,101089.28
2022-11-28T17:11:23.197Z,101098.97
2022-11-28T17:13:52.428Z,101092.13
2022-11-28T17:16:25.989Z,101088.78
2022-11-28T17:18:55.138Z,101087.44
2022-11-28T17:21:32.365Z,101087.19
2022-11-28T17:24:00.986Z,101085.66
2022-11-28T17:26:29.871Z,101078.13
2022-11-28T17:28:59.067Z,101081.13
2022-11-28T17:31:31.469Z,101085.66
2022-11-28T17:33:59.539Z,101079.09
2022-11-28T17:36:27.557Z,101089.00
2022-11-28T17:38:56.492Z,101081.97
2022-11-28T17:41:26.908Z,101085.66
2022-11-28T17:43:54.904Z,101092.31
2022-11-28T17:46:23.320Z,101089.59
2022-11-28T17:48:53.151Z,101089.34
2022-11-28T17:51:21.452Z,101086.69
2022-11-28T17:53:50.656Z,101082.25
2022-11-28T17:56:18.917Z,101086.16
2022-11-28T17:58:47.002Z,101083.56
2022-11-28T18:01:19.013Z,101077.59
2022-11-28T18:03:47.254Z,101071.31
2022-11-28T18:06:18.404Z,101068.31
2022-11-28T18:08:47.462Z,101066.97
2022-11-28T18:11:16.293Z,101070.91
2022-11-28T18:13:46.512Z,101064.75
2022-11-28T18:16:17.448Z,101072.13
2022-11-28T18:18:46.285Z,101079.81
2022-11-28T18:21:15.115Z,101076.34
2022-11-28T18:23:50.697Z,101069.59
2022-11-28T18:26:22.826Z,101077.75
2022-11-28T18:28:51.841Z,101082.44
2022-11-28T18:31:22.947Z,101080.00
2022-11-28T18:33:51.861Z,101076.63
2022-11-28T18:36:25.473Z,101079.38
2022-11-28T18:38:57.732Z,101079.81
2022-11-28T18:41:26.204Z,101070.25
2022-11-28T18:43:56.000Z,101077.88
2022-11-28T18:46:27.072Z,101082.09
2022-11-28T18:48:55.090Z,101082.81
2022-11-28T18:51:27.329Z,101087.47
2022-11-28T18:53:58.115Z,101077.69
2022-11-28T18:56:29.305Z,101073.44
2022-11-28T18:58:59.362Z,101079.03
2022-11-28T19:01:32.464Z,101071.75
2022-11-28T19:04:01.864Z,101077.78
2022-11-28T19:06:30.578Z,101071.75
2022-11-28T19:09:01.745Z,101067.47
2022-11-28T19:11:30.737Z,101073.75
2022-11-28T19:14:01.304Z,101067.56
2022-11-28T19:16:35.234Z,101071.25
2022-11-28T19:19:04.295Z,101060.06
2022-11-28T19:21:36.995Z,101065.41
2022-11-28T19:24:08.762Z,101065.56
2022-11-28T19:26:44.815Z,101059.53
2022-11-28T19:29:15.999Z,101062.22
2022-11-28T19:31:44.348Z,101071.75
2022-11-28T19:34:14.495Z,101069.63
2022-11-28T19:36:44.862Z,101073.94
2022-11-28T19:39:17.994Z,101072.63
2022-11-28T19:41:47.421Z,101079.84
2022-11-28T19:44:16.763Z,101076.41
2022-11-28T19:46:45.815Z,101071.38
2022-11-28T19:49:19.072Z,101072.38
2022-11-28T19:51:51.660Z,101079.06
2022-11-28T19:54:21.958Z,101083.25
2022-11-28T19:56:51.050Z,101072.41
2022-11-28T19:59:19.924Z,101079.31
2022-11-28T20:01:50.051Z,101082.03
2022-11-28T20:04:22.500Z,101081.81
2022-11-28T20:06:50.801Z,101080.91
2022-11-28T20:09:19.235Z,101087.47
2022-11-28T20:11:50.446Z,101079.09
2022-11-28T20:14:20.788Z,101084.94
2022-11-28T20:16:49.417Z,101083.13
2022-11-28T20:19:26.450Z,101090.44
2022-11-28T20:21:56.425Z,101089.97
2022-11-28T20:24:24.600Z,101094.53
2022-11-28T20:26:54.214Z,101103.31
2022-11-28T20:29:26.727Z,101104.66
2022-11-28T20:31:56.968Z,101098.63
2022-11-28T20:34:25.556Z,101102.00
2022-11-28T20:36:54.427Z,101093.97
2022-11-28T20:39:23.127Z,101097.41
2022-11-28T20:41:51.639Z,101090.41
2022-11-28T20:44:21.246Z,101091.16
2022-11-28T20:46:51.283Z,101083.56
2022-11-28T20:49:20.117Z,101091.06
2022-11-28T20:51:51.394Z,101090.50
2022-11-28T20:54:20.290Z,101088.28
2022-11-28T20:59:39.956Z,101091.06
2022-11-28T21:02:10.085Z,101093.84
2022-11-28T21:04:38.485Z,101085.38
2022-11-28T21:07:08.440Z,101089.13
2022-11-28T21:09:39.543Z,101087.84
2022-11-28T21:12:08.365Z,101085.31
2022-11-28T21:14:42.266Z,101087.97
2022-11-28T21:17:10.615Z,101089.13
2022-11-28T21:19:39.058Z,101099.09
2022-11-28T21:22:07.297Z,101089.59
2022-11-28T21:24:35.446Z,101093.22
2022-11-28T21:27:04.162Z,101088.81
2022-11-28T21:29:32.380Z,101091.78
2022-11-28T21:32:02.122Z,101093.56
2022-11-28T21:34:30.294Z,101090.94
2022-11-28T21:36:58.224Z,101080.59
2022-11-28T21:39:29.198Z,101087.84
2022-11-28T21:41:57.111Z,101080.81
2022-11-28T21:44:25.391Z,101085.91
2022-11-28T21:46:56.439Z,101091.19
2022-11-28T21:49:25.838Z,101086.06
2022-11-28T21:51:55.068Z,101088.06
2022-11-28T21:54:26.647Z,101087.72
2022-11-28T21:56:54.800Z,101075.91
2022-11-28T21:59:22.894Z,101082.78
2022-11-28T22:01:51.231Z,101082.50
2022-11-28T22:04:21.975Z,101076.13
2022-11-28T22:06:54.071Z,101076.28
2022-11-28T22:09:25.127Z,101072.00
2022-11-28T22:11:53.830Z,101073.28
2022-11-28T22:14:21.987Z,101073.75
2022-11-28T22:16:50.021Z,101068.34
2022-11-28T22:19:18.478Z,101078.28
2022-11-28T22:21:55.500Z,101079.81
2022-11-28T22:24:27.720Z,101084.34
2022-11-28T22:26:56.407Z,101088.13
2022-11-28T22:29:25.153Z,101088.16
2022-11-28T22:31:54.209Z,101092.50
2022-11-28T22:34:24.742Z,101089.78
2022-11-28T22:36:52.874Z,101091.22
2022-11-28T22:39:23.340Z,101088.69
2022-11-28T22:41:52.759Z,101087.66
2022-11-28T22:44:22.007Z,101082.56
2022-11-28T22:46:50.334Z,101093.59
2022-11-28T22:49:19.541Z,101092.22
2022-11-28T22:51:48.143Z,101086.38
2022-11-28T22:54:16.093Z,101095.34
2022-11-28T22:56:44.595Z,101094.47
2022-11-28T22:59:15.689Z,101090.69
2022-11-28T23:01:44.230Z,101096.84
2022-11-28T23:04:12.687Z,101105.91
2022-11-28T23:06:40.773Z,101089.16
2022-11-28T23:09:11.344Z,101097.09
2022-11-28T23:11:40.748Z,101096.13
2022-11-28T23:14:10.375Z,101090.50
2022-11-28T23:16:41.329Z,101098.25
2022-11-28T23:19:12.490Z,101087.31
2022-11-28T23:21:42.225Z,101092.31
2022-11-28T23:24:14.181Z,101084.09
2022-11-28T23:26:42.233Z,101077.25
2022-11-28T23:29:10.740Z,101092.16
2022-11-28T23:31:41.750Z,101088.84
2022-11-28T23:34:11.749Z,101092.97
2022-11-28T23:36:42.905Z,101095.66
2022-11-28T23:39:13.424Z,101090.84
2022-11-28T23:41:42.004Z,101096.06
2022-11-28T23:44:11.610Z,101092.34
2022-11-28T23:46:41.751Z,101094.69
2022-11-28T23:49:10.241Z,101098.75
2022-11-28T23:51:40.009Z,101096.47
2022-11-28T23:54:08.376Z,101098.88
2022-11-28T23:56:37.504Z,101093.00
2022-11-28T23:59:08.567Z,101099.97
